sensor_id;sensor_type;location;lat;lon;timestamp;temperature;humidity
45803;DHT22;31504;51.716;9.184;2023-02-01T00:02:00;19.60;42.70
45803;DHT22;31504;51.716;9.184;2023-02-01T00:05:01;19.60;42.60
45803;DHT22;31504;51.716;9.184;2023-02-01T00:08:01;19.60;42.60
45803;DHT22;31504;51.716;9.184;2023-02-01T00:11:06;19.60;42.50
45803;DHT22;31504;51.716;9.184;2023-02-01T00:14:06;19.60;42.60
45803;DHT22;31504;51.716;9.184;2023-02-01T00:17:08;19.50;42.50
45803;DHT22;31504;51.716;9.184;2023-02-01T00:20:08;19.50;42.50
45803;DHT22;31504;51.716;9.184;2023-02-01T00:23:09;19.50;42.50
45803;DHT22;31504;51.716;9.184;2023-02-01T00:26:14;19.50;42.50
45803;DHT22;31504;51.716;9.184;2023-02-01T00:29:15;19.50;42.40
45803;DHT22;31504;51.716;9.184;2023-02-01T00:32:16;19.50;42.40
45803;DHT22;31504;51.716;9.184;2023-02-01T00:35:16;19.50;42.40
45803;DHT22;31504;51.716;9.184;2023-02-01T00:38:17;19.50;42.50
45803;DHT22;31504;51.716;9.184;2023-02-01T00:41:18;19.50;42.40
45803;DHT22;31504;51.716;9.184;2023-02-01T00:44:18;19.50;42.40
45803;DHT22;31504;51.716;9.184;2023-02-01T00:47:19;19.50;42.30
45803;DHT22;31504;51.716;9.184;2023-02-01T00:50:20;19.50;42.30
45803;DHT22;31504;51.716;9.184;2023-02-01T00:53:20;19.50;42.30
45803;DHT22;31504;51.716;9.184;2023-02-01T00:56:21;19.50;42.30
45803;DHT22;31504;51.716;9.184;2023-02-01T00:59:21;19.50;42.30
45803;DHT22;31504;51.716;9.184;2023-02-01T01:02:22;19.50;42.30
45803;DHT22;31504;51.716;9.184;2023-02-01T01:05:22;19.50;42.20
45803;DHT22;31504;51.716;9.184;2023-02-01T01:08:22;19.50;42.30
45803;DHT22;31504;51.716;9.184;2023-02-01T01:11:24;19.50;42.20
45803;DHT22;31504;51.716;9.184;2023-02-01T01:14:25;19.50;42.20
45803;DHT22;31504;51.716;9.184;2023-02-01T01:17:25;19.50;42.20
45803;DHT22;31504;51.716;9.184;2023-02-01T01:20:26;19.50;42.20
45803;DHT22;31504;51.716;9.184;2023-02-01T01:23:27;19.50;42.20
45803;DHT22;31504;51.716;9.184;2023-02-01T01:26:28;19.50;42.10
45803;DHT22;31504;51.716;9.184;2023-02-01T01:29:29;19.50;42.10
45803;DHT22;31504;51.716;9.184;2023-02-01T01:32:29;19.50;42.10
45803;DHT22;31504;51.716;9.184;2023-02-01T01:35:30;19.50;42.00
45803;DHT22;31504;51.716;9.184;2023-02-01T01:38:31;19.50;42.10
45803;DHT22;31504;51.716;9.184;2023-02-01T01:41:31;19.50;42.00
45803;DHT22;31504;51.716;9.184;2023-02-01T01:47:55;19.50;42.10
45803;DHT22;31504;51.716;9.184;2023-02-01T01:54:03;19.50;42.00
45803;DHT22;31504;51.716;9.184;2023-02-01T01:57:09;19.50;41.90
45803;DHT22;31504;51.716;9.184;2023-02-01T02:00:13;19.50;42.00
45803;DHT22;31504;51.716;9.184;2023-02-01T02:03:18;19.50;41.90
45803;DHT22;31504;51.716;9.184;2023-02-01T02:09:38;19.50;41.90
45803;DHT22;31504;51.716;9.184;2023-02-01T02:12:40;19.50;41.90
45803;DHT22;31504;51.716;9.184;2023-02-01T02:15:52;19.50;41.90
45803;DHT22;31504;51.716;9.184;2023-02-01T02:22:02;19.50;41.90
45803;DHT22;31504;51.716;9.184;2023-02-01T02:31:46;19.50;41.90
45803;DHT22;31504;51.716;9.184;2023-02-01T02:34:50;19.50;41.90
45803;DHT22;31504;51.716;9.184;2023-02-01T02:37:55;19.50;41.80
45803;DHT22;31504;51.716;9.184;2023-02-01T02:41:03;19.50;41.80
45803;DHT22;31504;51.716;9.184;2023-02-01T02:44:10;19.50;41.80
45803;DHT22;31504;51.716;9.184;2023-02-01T02:47:45;19.50;41.80
45803;DHT22;31504;51.716;9.184;2023-02-01T02:50:54;19.50;41.80
45803;DHT22;31504;51.716;9.184;2023-02-01T02:54:18;19.50;41.80
45803;DHT22;31504;51.716;9.184;2023-02-01T02:57:39;19.50;41.80
45803;DHT22;31504;51.716;9.184;2023-02-01T03:00:59;19.50;41.80
45803;DHT22;31504;51.716;9.184;2023-02-01T03:04:18;19.50;41.80
45803;DHT22;31504;51.716;9.184;2023-02-01T03:10:44;19.50;41.80
45803;DHT22;31504;51.716;9.184;2023-02-01T03:13:49;19.50;41.80
45803;DHT22;31504;51.716;9.184;2023-02-01T03:16:51;19.50;41.80
45803;DHT22;31504;51.716;9.184;2023-02-01T03:19:54;19.50;41.80
45803;DHT22;31504;51.716;9.184;2023-02-01T03:22:55;19.40;41.80
45803;DHT22;31504;51.716;9.184;2023-02-01T03:25:58;19.50;41.80
45803;DHT22;31504;51.716;9.184;2023-02-01T03:29:03;19.50;41.80
45803;DHT22;31504;51.716;9.184;2023-02-01T03:32:05;19.50;41.80
45803;DHT22;31504;51.716;9.184;2023-02-01T03:35:06;19.50;41.70
45803;DHT22;31504;51.716;9.184;2023-02-01T03:38:09;19.40;41.70
45803;DHT22;31504;51.716;9.184;2023-02-01T03:44:16;19.50;41.80
45803;DHT22;31504;51.716;9.184;2023-02-01T03:47:20;19.50;41.70
45803;DHT22;31504;51.716;9.184;2023-02-01T03:50:22;19.50;41.60
45803;DHT22;31504;51.716;9.184;2023-02-01T03:53:25;19.60;41.60
45803;DHT22;31504;51.716;9.184;2023-02-01T03:56:27;19.60;41.70
45803;DHT22;31504;51.716;9.184;2023-02-01T03:59:27;19.50;41.70
45803;DHT22;31504;51.716;9.184;2023-02-01T04:02:28;19.60;41.80
45803;DHT22;31504;51.716;9.184;2023-02-01T04:05:28;19.50;41.80
45803;DHT22;31504;51.716;9.184;2023-02-01T04:08:28;19.60;41.80
45803;DHT22;31504;51.716;9.184;2023-02-01T04:11:29;19.50;41.90
45803;DHT22;31504;51.716;9.184;2023-02-01T04:14:29;19.50;42.00
45803;DHT22;31504;51.716;9.184;2023-02-01T04:17:30;19.50;41.90
45803;DHT22;31504;51.716;9.184;2023-02-01T04:20:30;19.50;41.80
45803;DHT22;31504;51.716;9.184;2023-02-01T04:23:31;19.50;41.90
45803;DHT22;31504;51.716;9.184;2023-02-01T04:26:36;19.40;41.90
45803;DHT22;31504;51.716;9.184;2023-02-01T04:29:36;19.50;41.90
45803;DHT22;31504;51.716;9.184;2023-02-01T04:32:37;19.40;41.70
45803;DHT22;31504;51.716;9.184;2023-02-01T04:35:38;19.50;41.70
45803;DHT22;31504;51.716;9.184;2023-02-01T04:38:38;19.50;41.80
45803;DHT22;31504;51.716;9.184;2023-02-01T04:41:39;19.40;41.80
45803;DHT22;31504;51.716;9.184;2023-02-01T04:44:39;19.40;41.80
45803;DHT22;31504;51.716;9.184;2023-02-01T04:47:41;19.40;41.70
45803;DHT22;31504;51.716;9.184;2023-02-01T04:50:42;19.40;41.70
45803;DHT22;31504;51.716;9.184;2023-02-01T04:53:45;19.40;41.70
45803;DHT22;31504;51.716;9.184;2023-02-01T04:56:45;19.40;41.60
45803;DHT22;31504;51.716;9.184;2023-02-01T04:59:46;19.40;41.60
45803;DHT22;31504;51.716;9.184;2023-02-01T05:02:46;19.40;41.60
45803;DHT22;31504;51.716;9.184;2023-02-01T05:05:47;19.40;41.70
45803;DHT22;31504;51.716;9.184;2023-02-01T05:08:48;19.40;41.60
45803;DHT22;31504;51.716;9.184;2023-02-01T05:11:49;19.40;41.60
45803;DHT22;31504;51.716;9.184;2023-02-01T05:15:08;19.40;41.70
45803;DHT22;31504;51.716;9.184;2023-02-01T05:18:08;19.40;41.60
45803;DHT22;31504;51.716;9.184;2023-02-01T05:21:08;19.40;41.60
45803;DHT22;31504;51.716;9.184;2023-02-01T05:24:09;19.40;41.60
45803;DHT22;31504;51.716;9.184;2023-02-01T05:27:09;19.40;41.60
45803;DHT22;31504;51.716;9.184;2023-02-01T05:30:10;19.40;41.60
45803;DHT22;31504;51.716;9.184;2023-02-01T05:33:10;19.50;41.60
45803;DHT22;31504;51.716;9.184;2023-02-01T07:37:17;19.40;41.50
45803;DHT22;31504;51.716;9.184;2023-02-01T07:40:18;19.40;41.50
45803;DHT22;31504;51.716;9.184;2023-02-01T07:43:22;19.50;41.50
45803;DHT22;31504;51.716;9.184;2023-02-01T07:46:22;19.50;41.60
45803;DHT22;31504;51.716;9.184;2023-02-01T07:49:23;19.60;41.60
45803;DHT22;31504;51.716;9.184;2023-02-01T07:52:23;19.60;41.70
45803;DHT22;31504;51.716;9.184;2023-02-01T07:55:24;19.60;41.70
45803;DHT22;31504;51.716;9.184;2023-02-01T07:58:25;19.60;41.80
45803;DHT22;31504;51.716;9.184;2023-02-01T08:01:26;19.60;41.80
45803;DHT22;31504;51.716;9.184;2023-02-01T08:04:27;19.60;41.80
45803;DHT22;31504;51.716;9.184;2023-02-01T08:07:29;19.60;41.80
45803;DHT22;31504;51.716;9.184;2023-02-01T08:10:29;19.60;41.80
45803;DHT22;31504;51.716;9.184;2023-02-01T08:13:30;19.60;41.90
45803;DHT22;31504;51.716;9.184;2023-02-01T08:16:30;19.60;41.80
45803;DHT22;31504;51.716;9.184;2023-02-01T08:19:31;19.60;41.90
45803;DHT22;31504;51.716;9.184;2023-02-01T08:22:32;19.60;41.90
45803;DHT22;31504;51.716;9.184;2023-02-01T08:25:32;19.60;41.80
45803;DHT22;31504;51.716;9.184;2023-02-01T08:28:32;19.60;41.80
45803;DHT22;31504;51.716;9.184;2023-02-01T08:31:33;19.70;41.80
45803;DHT22;31504;51.716;9.184;2023-02-01T08:34:33;19.60;41.90
45803;DHT22;31504;51.716;9.184;2023-02-01T08:37:34;19.60;41.90
45803;DHT22;31504;51.716;9.184;2023-02-01T08:40:34;19.70;41.90
45803;DHT22;31504;51.716;9.184;2023-02-01T08:43:35;19.60;41.80
45803;DHT22;31504;51.716;9.184;2023-02-01T08:46:35;19.70;41.70
45803;DHT22;31504;51.716;9.184;2023-02-01T08:49:36;19.70;41.70
45803;DHT22;31504;51.716;9.184;2023-02-01T08:52:36;19.70;41.70
45803;DHT22;31504;51.716;9.184;2023-02-01T08:55:37;19.70;41.70
45803;DHT22;31504;51.716;9.184;2023-02-01T08:58:37;19.70;41.70
45803;DHT22;31504;51.716;9.184;2023-02-01T09:01:38;19.70;41.70
45803;DHT22;31504;51.716;9.184;2023-02-01T09:04:38;19.70;41.60
45803;DHT22;31504;51.716;9.184;2023-02-01T09:07:38;19.70;41.60
45803;DHT22;31504;51.716;9.184;2023-02-01T09:10:39;19.70;41.60
45803;DHT22;31504;51.716;9.184;2023-02-01T09:13:41;19.70;41.70
45803;DHT22;31504;51.716;9.184;2023-02-01T09:16:42;19.60;41.70
45803;DHT22;31504;51.716;9.184;2023-02-01T09:19:43;19.60;41.70
45803;DHT22;31504;51.716;9.184;2023-02-01T09:22:43;19.50;41.70
45803;DHT22;31504;51.716;9.184;2023-02-01T09:25:43;19.50;41.70
45803;DHT22;31504;51.716;9.184;2023-02-01T09:28:44;19.50;41.60
45803;DHT22;31504;51.716;9.184;2023-02-01T09:31:44;19.50;41.60
45803;DHT22;31504;51.716;9.184;2023-02-01T09:34:45;19.50;42.20
45803;DHT22;31504;51.716;9.184;2023-02-01T09:37:46;19.50;41.50
45803;DHT22;31504;51.716;9.184;2023-02-01T09:40:46;19.50;41.40
45803;DHT22;31504;51.716;9.184;2023-02-01T09:43:49;19.50;41.50
45803;DHT22;31504;51.716;9.184;2023-02-01T09:46:55;19.50;41.40
45803;DHT22;31504;51.716;9.184;2023-02-01T09:50:02;19.70;41.60
45803;DHT22;31504;51.716;9.184;2023-02-01T09:53:09;20.10;40.80
45803;DHT22;31504;51.716;9.184;2023-02-01T09:56:13;20.20;40.70
45803;DHT22;31504;51.716;9.184;2023-02-01T10:02:34;19.90;41.00
45803;DHT22;31504;51.716;9.184;2023-02-01T10:08:56;19.70;41.40
45803;DHT22;31504;51.716;9.184;2023-02-01T10:12:08;19.60;41.30
45803;DHT22;31504;51.716;9.184;2023-02-01T10:15:19;19.60;41.30
45803;DHT22;31504;51.716;9.184;2023-02-01T10:18:32;19.60;41.20
45803;DHT22;31504;51.716;9.184;2023-02-01T10:21:46;19.70;41.10
45803;DHT22;31504;51.716;9.184;2023-02-01T10:24:52;19.70;41.00
45803;DHT22;31504;51.716;9.184;2023-02-01T10:27:57;19.70;41.10
45803;DHT22;31504;51.716;9.184;2023-02-01T10:30:59;19.70;41.10
45803;DHT22;31504;51.716;9.184;2023-02-01T10:34:03;19.70;41.10
45803;DHT22;31504;51.716;9.184;2023-02-01T10:37:23;19.70;41.10
45803;DHT22;31504;51.716;9.184;2023-02-01T10:40:25;19.70;41.10
45803;DHT22;31504;51.716;9.184;2023-02-01T10:43:25;19.70;41.10
45803;DHT22;31504;51.716;9.184;2023-02-01T10:46:26;19.70;41.10
45803;DHT22;31504;51.716;9.184;2023-02-01T10:49:29;19.70;41.20
45803;DHT22;31504;51.716;9.184;2023-02-01T10:52:38;19.70;41.20
45803;DHT22;31504;51.716;9.184;2023-02-01T10:55:40;19.70;41.20
45803;DHT22;31504;51.716;9.184;2023-02-01T10:58:45;19.70;41.20
45803;DHT22;31504;51.716;9.184;2023-02-01T11:01:47;19.70;41.10
45803;DHT22;31504;51.716;9.184;2023-02-01T11:04:48;19.80;41.20
45803;DHT22;31504;51.716;9.184;2023-02-01T11:07:49;19.70;41.20
45803;DHT22;31504;51.716;9.184;2023-02-01T11:10:57;19.70;41.20
45803;DHT22;31504;51.716;9.184;2023-02-01T11:13:59;19.70;41.20
45803;DHT22;31504;51.716;9.184;2023-02-01T11:20:19;19.70;41.20
45803;DHT22;31504;51.716;9.184;2023-02-01T11:23:20;19.70;41.20
45803;DHT22;31504;51.716;9.184;2023-02-01T11:26:23;19.70;41.20
45803;DHT22;31504;51.716;9.184;2023-02-01T11:29:24;19.70;41.10
45803;DHT22;31504;51.716;9.184;2023-02-01T11:32:29;19.70;41.10
45803;DHT22;31504;51.716;9.184;2023-02-01T11:35:30;19.70;41.70
45803;DHT22;31504;51.716;9.184;2023-02-01T11:38:32;19.80;41.10
45803;DHT22;31504;51.716;9.184;2023-02-01T11:41:33;19.80;41.10
45803;DHT22;31504;51.716;9.184;2023-02-01T11:44:37;19.70;41.00
45803;DHT22;31504;51.716;9.184;2023-02-01T11:47:39;19.70;41.00
45803;DHT22;31504;51.716;9.184;2023-02-01T12:00:08;19.70;41.40
45803;DHT22;31504;51.716;9.184;2023-02-01T12:09:58;19.70;41.10
45803;DHT22;31504;51.716;9.184;2023-02-01T12:13:09;19.70;41.20
45803;DHT22;31504;51.716;9.184;2023-02-01T12:19:17;19.70;41.10
45803;DHT22;31504;51.716;9.184;2023-02-01T12:22:32;19.70;41.30
45803;DHT22;31504;51.716;9.184;2023-02-01T12:38:26;19.70;41.00
45803;DHT22;31504;51.716;9.184;2023-02-01T12:44:50;19.70;40.90
45803;DHT22;31504;51.716;9.184;2023-02-01T12:47:56;19.70;40.90
45803;DHT22;31504;51.716;9.184;2023-02-01T12:51:06;19.70;40.90
45803;DHT22;31504;51.716;9.184;2023-02-01T12:54:21;19.70;40.90
45803;DHT22;31504;51.716;9.184;2023-02-01T12:57:25;19.70;41.00
45803;DHT22;31504;51.716;9.184;2023-02-01T13:06:35;19.70;41.30
45803;DHT22;31504;51.716;9.184;2023-02-01T13:09:39;19.70;41.30
45803;DHT22;31504;51.716;9.184;2023-02-01T13:12:56;19.70;41.40
45803;DHT22;31504;51.716;9.184;2023-02-01T13:19:23;19.80;41.50
45803;DHT22;31504;51.716;9.184;2023-02-01T13:22:29;19.70;41.50
45803;DHT22;31504;51.716;9.184;2023-02-01T13:25:49;19.70;41.70
45803;DHT22;31504;51.716;9.184;2023-02-01T13:28:51;19.70;41.80
45803;DHT22;31504;51.716;9.184;2023-02-01T13:31:59;19.70;41.90
45803;DHT22;31504;51.716;9.184;2023-02-01T13:35:06;19.70;42.20
45803;DHT22;31504;51.716;9.184;2023-02-01T13:38:15;19.70;42.40
45803;DHT22;31504;51.716;9.184;2023-02-01T13:41:24;19.70;42.70
45803;DHT22;31504;51.716;9.184;2023-02-01T13:44:46;19.70;42.90
45803;DHT22;31504;51.716;9.184;2023-02-01T13:47:48;19.70;43.00
45803;DHT22;31504;51.716;9.184;2023-02-01T13:50:51;19.70;43.10
45803;DHT22;31504;51.716;9.184;2023-02-01T13:53:52;19.70;43.20
45803;DHT22;31504;51.716;9.184;2023-02-01T13:56:52;19.70;43.20
45803;DHT22;31504;51.716;9.184;2023-02-01T13:59:53;19.80;43.20
45803;DHT22;31504;51.716;9.184;2023-02-01T14:06:14;19.80;43.40
45803;DHT22;31504;51.716;9.184;2023-02-01T14:09:17;19.80;43.40
45803;DHT22;31504;51.716;9.184;2023-02-01T14:15:37;19.80;43.40
45803;DHT22;31504;51.716;9.184;2023-02-01T14:21:48;19.80;43.60
45803;DHT22;31504;51.716;9.184;2023-02-01T14:24:49;19.70;43.50
45803;DHT22;31504;51.716;9.184;2023-02-01T14:27:52;19.70;43.60
45803;DHT22;31504;51.716;9.184;2023-02-01T14:30:54;19.70;43.50
45803;DHT22;31504;51.716;9.184;2023-02-01T14:34:00;19.80;43.50
45803;DHT22;31504;51.716;9.184;2023-02-01T14:37:02;19.80;43.40
45803;DHT22;31504;51.716;9.184;2023-02-01T14:43:13;19.70;43.30
45803;DHT22;31504;51.716;9.184;2023-02-01T14:46:14;19.70;43.30
45803;DHT22;31504;51.716;9.184;2023-02-01T14:49:14;19.80;43.30
45803;DHT22;31504;51.716;9.184;2023-02-01T14:52:16;19.70;43.20
45803;DHT22;31504;51.716;9.184;2023-02-01T14:55:19;19.80;43.20
45803;DHT22;31504;51.716;9.184;2023-02-01T15:01:22;19.70;43.30
45803;DHT22;31504;51.716;9.184;2023-02-01T15:04:25;19.70;43.20
45803;DHT22;31504;51.716;9.184;2023-02-01T15:07:26;19.70;43.10
45803;DHT22;31504;51.716;9.184;2023-02-01T15:10:27;19.70;43.00
45803;DHT22;31504;51.716;9.184;2023-02-01T15:13:28;19.70;43.10
45803;DHT22;31504;51.716;9.184;2023-02-01T15:16:28;19.70;43.10
45803;DHT22;31504;51.716;9.184;2023-02-01T15:19:29;19.80;43.10
45803;DHT22;31504;51.716;9.184;2023-02-01T15:22:30;19.70;43.10
45803;DHT22;31504;51.716;9.184;2023-02-01T15:25:38;19.70;43.10
45803;DHT22;31504;51.716;9.184;2023-02-01T15:28:38;19.70;43.20
45803;DHT22;31504;51.716;9.184;2023-02-01T15:31:40;19.70;43.20
45803;DHT22;31504;51.716;9.184;2023-02-01T15:34:45;19.70;43.40
45803;DHT22;31504;51.716;9.184;2023-02-01T15:37:47;19.70;43.40
45803;DHT22;31504;51.716;9.184;2023-02-01T15:41:00;19.70;43.60
45803;DHT22;31504;51.716;9.184;2023-02-01T15:44:08;19.70;44.10
45803;DHT22;31504;51.716;9.184;2023-02-01T15:47:15;19.70;44.40
45803;DHT22;31504;51.716;9.184;2023-02-01T15:50:16;19.80;44.70
45803;DHT22;31504;51.716;9.184;2023-02-01T15:53:20;19.80;44.90
45803;DHT22;31504;51.716;9.184;2023-02-01T15:56:25;19.80;45.00
45803;DHT22;31504;51.716;9.184;2023-02-01T15:59:43;19.80;45.00
45803;DHT22;31504;51.716;9.184;2023-02-01T16:02:51;19.80;45.00
45803;DHT22;31504;51.716;9.184;2023-02-01T16:05:56;19.80;45.10
45803;DHT22;31504;51.716;9.184;2023-02-01T16:12:01;19.80;45.10
45803;DHT22;31504;51.716;9.184;2023-02-01T16:15:02;19.80;45.20
45803;DHT22;31504;51.716;9.184;2023-02-01T16:18:03;19.80;45.20
45803;DHT22;31504;51.716;9.184;2023-02-01T16:21:03;19.80;45.10
45803;DHT22;31504;51.716;9.184;2023-02-01T16:24:04;19.80;45.20
45803;DHT22;31504;51.716;9.184;2023-02-01T16:27:05;19.80;45.30
45803;DHT22;31504;51.716;9.184;2023-02-01T16:30:07;19.80;45.30
45803;DHT22;31504;51.716;9.184;2023-02-01T16:33:11;19.80;45.40
45803;DHT22;31504;51.716;9.184;2023-02-01T16:36:15;19.90;45.50
45803;DHT22;31504;51.716;9.184;2023-02-01T16:39:16;19.90;45.50
45803;DHT22;31504;51.716;9.184;2023-02-01T16:42:16;19.90;45.50
45803;DHT22;31504;51.716;9.184;2023-02-01T16:45:17;19.90;45.50
45803;DHT22;31504;51.716;9.184;2023-02-01T16:48:28;19.80;45.30
45803;DHT22;31504;51.716;9.184;2023-02-01T16:51:29;19.80;45.30
45803;DHT22;31504;51.716;9.184;2023-02-01T16:54:32;19.90;45.40
45803;DHT22;31504;51.716;9.184;2023-02-01T16:57:32;19.90;45.50
45803;DHT22;31504;51.716;9.184;2023-02-01T17:00:33;19.80;45.40
45803;DHT22;31504;51.716;9.184;2023-02-01T17:03:37;19.90;45.60
45803;DHT22;31504;51.716;9.184;2023-02-01T17:06:37;19.90;45.50
45803;DHT22;31504;51.716;9.184;2023-02-01T17:09:38;19.90;45.60
45803;DHT22;31504;51.716;9.184;2023-02-01T17:12:39;19.90;45.60
45803;DHT22;31504;51.716;9.184;2023-02-01T17:15:40;19.90;45.50
45803;DHT22;31504;51.716;9.184;2023-02-01T17:18:42;19.90;45.60
45803;DHT22;31504;51.716;9.184;2023-02-01T17:21:44;19.90;45.60
45803;DHT22;31504;51.716;9.184;2023-02-01T17:24:46;20.00;45.60
45803;DHT22;31504;51.716;9.184;2023-02-01T17:27:47;20.00;45.60
45803;DHT22;31504;51.716;9.184;2023-02-01T17:30:48;20.00;45.50
45803;DHT22;31504;51.716;9.184;2023-02-01T17:33:48;20.00;46.20
45803;DHT22;31504;51.716;9.184;2023-02-01T17:36:49;20.00;45.70
45803;DHT22;31504;51.716;9.184;2023-02-01T17:39:50;20.00;45.70
45803;DHT22;31504;51.716;9.184;2023-02-01T17:42:54;19.90;45.80
45803;DHT22;31504;51.716;9.184;2023-02-01T17:45:57;19.90;45.80
45803;DHT22;31504;51.716;9.184;2023-02-01T17:49:00;19.90;45.90
45803;DHT22;31504;51.716;9.184;2023-02-01T17:52:03;20.00;45.90
45803;DHT22;31504;51.716;9.184;2023-02-01T17:55:14;20.00;45.90
45803;DHT22;31504;51.716;9.184;2023-02-01T17:58:16;20.00;46.00
45803;DHT22;31504;51.716;9.184;2023-02-01T18:01:17;20.00;45.90
45803;DHT22;31504;51.716;9.184;2023-02-01T18:04:18;20.00;46.00
45803;DHT22;31504;51.716;9.184;2023-02-01T18:07:19;20.00;45.90
45803;DHT22;31504;51.716;9.184;2023-02-01T18:10:19;20.00;45.90
45803;DHT22;31504;51.716;9.184;2023-02-01T18:13:20;20.00;45.80
45803;DHT22;31504;51.716;9.184;2023-02-01T18:16:24;20.00;45.90
45803;DHT22;31504;51.716;9.184;2023-02-01T18:19:25;20.00;46.00
45803;DHT22;31504;51.716;9.184;2023-02-01T18:22:26;20.00;45.90
45803;DHT22;31504;51.716;9.184;2023-02-01T18:25:28;20.00;45.90
45803;DHT22;31504;51.716;9.184;2023-02-01T18:28:37;20.00;46.00
45803;DHT22;31504;51.716;9.184;2023-02-01T18:31:45;20.00;46.20
45803;DHT22;31504;51.716;9.184;2023-02-01T18:34:46;20.00;46.30
45803;DHT22;31504;51.716;9.184;2023-02-01T18:37:47;20.00;46.40
45803;DHT22;31504;51.716;9.184;2023-02-01T18:40:49;20.00;46.40
45803;DHT22;31504;51.716;9.184;2023-02-01T18:43:50;20.00;46.30
45803;DHT22;31504;51.716;9.184;2023-02-01T18:46:50;20.00;46.20
45803;DHT22;31504;51.716;9.184;2023-02-01T18:49:51;20.00;46.20
45803;DHT22;31504;51.716;9.184;2023-02-01T18:52:52;20.00;46.10
45803;DHT22;31504;51.716;9.184;2023-02-01T18:55:53;20.00;46.10
45803;DHT22;31504;51.716;9.184;2023-02-01T18:58:54;20.00;46.00
45803;DHT22;31504;51.716;9.184;2023-02-01T19:01:57;20.00;46.00
45803;DHT22;31504;51.716;9.184;2023-02-01T19:04:57;20.00;46.00
45803;DHT22;31504;51.716;9.184;2023-02-01T19:07:57;20.00;46.00
45803;DHT22;31504;51.716;9.184;2023-02-01T19:10:58;20.00;46.10
45803;DHT22;31504;51.716;9.184;2023-02-01T19:13:59;20.00;46.20
45803;DHT22;31504;51.716;9.184;2023-02-01T19:17:00;20.00;46.30
45803;DHT22;31504;51.716;9.184;2023-02-01T19:20:00;20.00;46.40
45803;DHT22;31504;51.716;9.184;2023-02-01T19:23:01;20.00;46.40
45803;DHT22;31504;51.716;9.184;2023-02-01T19:29:14;19.90;46.50
45803;DHT22;31504;51.716;9.184;2023-02-01T19:32:14;20.00;46.50
45803;DHT22;31504;51.716;9.184;2023-02-01T19:35:16;19.90;46.30
45803;DHT22;31504;51.716;9.184;2023-02-01T19:38:18;20.00;46.30
45803;DHT22;31504;51.716;9.184;2023-02-01T19:41:19;20.00;46.30
45803;DHT22;31504;51.716;9.184;2023-02-01T19:44:19;20.00;46.10
45803;DHT22;31504;51.716;9.184;2023-02-01T19:47:19;20.00;46.00
45803;DHT22;31504;51.716;9.184;2023-02-01T19:50:20;19.90;45.80
45803;DHT22;31504;51.716;9.184;2023-02-01T19:53:21;20.00;45.80
45803;DHT22;31504;51.716;9.184;2023-02-01T19:56:24;20.00;45.60
45803;DHT22;31504;51.716;9.184;2023-02-01T19:59:24;20.00;45.50
45803;DHT22;31504;51.716;9.184;2023-02-01T20:02:25;20.00;45.40
45803;DHT22;31504;51.716;9.184;2023-02-01T20:05:28;20.00;45.30
45803;DHT22;31504;51.716;9.184;2023-02-01T20:08:29;19.90;45.30
45803;DHT22;31504;51.716;9.184;2023-02-01T20:11:29;19.90;45.20
45803;DHT22;31504;51.716;9.184;2023-02-01T20:14:29;20.00;45.20
45803;DHT22;31504;51.716;9.184;2023-02-01T20:17:30;19.90;45.10
45803;DHT22;31504;51.716;9.184;2023-02-01T20:20:32;19.90;45.10
45803;DHT22;31504;51.716;9.184;2023-02-01T20:23:33;19.90;45.10
45803;DHT22;31504;51.716;9.184;2023-02-01T20:26:33;20.00;45.10
45803;DHT22;31504;51.716;9.184;2023-02-01T20:29:34;19.90;44.90
45803;DHT22;31504;51.716;9.184;2023-02-01T20:32:35;20.00;45.40
45803;DHT22;31504;51.716;9.184;2023-02-01T20:35:35;20.00;45.00
45803;DHT22;31504;51.716;9.184;2023-02-01T20:38:36;19.90;44.90
45803;DHT22;31504;51.716;9.184;2023-02-01T20:41:36;20.00;45.00
45803;DHT22;31504;51.716;9.184;2023-02-01T20:44:37;20.00;44.90
45803;DHT22;31504;51.716;9.184;2023-02-01T20:47:37;20.00;45.00
45803;DHT22;31504;51.716;9.184;2023-02-01T20:50:40;19.90;45.00
45803;DHT22;31504;51.716;9.184;2023-02-01T20:53:40;20.00;45.10
45803;DHT22;31504;51.716;9.184;2023-02-01T20:56:41;20.00;45.00
45803;DHT22;31504;51.716;9.184;2023-02-01T20:59:41;20.00;45.00
45803;DHT22;31504;51.716;9.184;2023-02-01T21:02:42;20.00;45.00
45803;DHT22;31504;51.716;9.184;2023-02-01T21:05:49;20.00;45.00
45803;DHT22;31504;51.716;9.184;2023-02-01T21:08:50;20.00;45.00
45803;DHT22;31504;51.716;9.184;2023-02-01T21:11:51;20.00;45.00
45803;DHT22;31504;51.716;9.184;2023-02-01T21:14:51;20.00;44.90
45803;DHT22;31504;51.716;9.184;2023-02-01T21:17:54;20.00;44.90
45803;DHT22;31504;51.716;9.184;2023-02-01T21:20:54;20.00;44.90
45803;DHT22;31504;51.716;9.184;2023-02-01T21:23:55;20.00;44.90
45803;DHT22;31504;51.716;9.184;2023-02-01T21:26:56;20.00;45.00
45803;DHT22;31504;51.716;9.184;2023-02-01T21:29:56;20.00;45.00
45803;DHT22;31504;51.716;9.184;2023-02-01T21:32:57;20.00;45.00
45803;DHT22;31504;51.716;9.184;2023-02-01T21:35:58;20.00;45.20
45803;DHT22;31504;51.716;9.184;2023-02-01T21:38:59;20.00;45.50
45803;DHT22;31504;51.716;9.184;2023-02-01T21:42:02;20.00;45.50
45803;DHT22;31504;51.716;9.184;2023-02-01T21:45:21;20.00;45.50
45803;DHT22;31504;51.716;9.184;2023-02-01T21:48:21;19.90;45.50
45803;DHT22;31504;51.716;9.184;2023-02-01T21:51:22;20.00;45.50
45803;DHT22;31504;51.716;9.184;2023-02-01T21:54:23;19.90;45.50
45803;DHT22;31504;51.716;9.184;2023-02-01T21:57:24;19.80;45.50
45803;DHT22;31504;51.716;9.184;2023-02-01T22:00:25;19.80;45.40
45803;DHT22;31504;51.716;9.184;2023-02-01T22:03:25;19.80;45.20
45803;DHT22;31504;51.716;9.184;2023-02-01T22:06:36;19.80;45.20
45803;DHT22;31504;51.716;9.184;2023-02-01T22:09:37;19.80;45.10
45803;DHT22;31504;51.716;9.184;2023-02-01T22:12:37;19.80;45.00
45803;DHT22;31504;51.716;9.184;2023-02-01T22:15:37;19.80;44.90
45803;DHT22;31504;51.716;9.184;2023-02-01T22:18:38;19.80;44.80
45803;DHT22;31504;51.716;9.184;2023-02-01T22:21:39;19.70;44.60
45803;DHT22;31504;51.716;9.184;2023-02-01T22:24:41;19.70;44.60
45803;DHT22;31504;51.716;9.184;2023-02-01T22:27:41;19.70;44.50
45803;DHT22;31504;51.716;9.184;2023-02-01T22:30:42;19.70;44.40
45803;DHT22;31504;51.716;9.184;2023-02-01T22:33:43;19.70;44.30
45803;DHT22;31504;51.716;9.184;2023-02-01T22:36:44;19.70;44.30
45803;DHT22;31504;51.716;9.184;2023-02-01T22:39:45;19.70;44.20
45803;DHT22;31504;51.716;9.184;2023-02-01T22:42:46;19.70;44.10
45803;DHT22;31504;51.716;9.184;2023-02-01T22:45:46;19.70;44.10
45803;DHT22;31504;51.716;9.184;2023-02-01T22:48:47;19.70;44.10
45803;DHT22;31504;51.716;9.184;2023-02-01T22:51:47;19.70;44.00
45803;DHT22;31504;51.716;9.184;2023-02-01T22:54:49;19.70;44.00
45803;DHT22;31504;51.716;9.184;2023-02-01T22:57:50;19.70;44.00